ADDS - METARS form results

Aviation Digital Data Service (ADDS)

Output produced by METARs form (0053 UTC 25 May 2022)
found at http://aviationweather.gov/metar/data/
 
METAR text: KJOT 250035Z AUTO 05013G19KT 10SM SCT120 17/05 A3010 RMK AO2 T01690048
Conditions at: KJOT (JOLIET , IL, US) observed 0035 UTC 25 May 2022
Temperature: 16.9°C (62°F)
Dewpoint: 4.8°C (41°F) [RH = 45%]
Pressure (altimeter): 30.10 inches Hg (1019.4 mb)
Winds: from the NE (50 degrees) at 15 MPH (13 knots; 6.7 m/s)
gusting to 22 MPH (19 knots; 9.8 m/s)
Visibility: 10 or more miles (16+ km)
Ceiling: at least 12,000 feet AGL
Clouds: scattered clouds at 12000 feet AGL
Weather: automated observation with no human augmentation;
there may or may not be significant weather present at this time

METAR text: KJOT 250015Z AUTO 05016KT 10SM SCT110 18/05 A3010 RMK AO2 T01750047
Conditions at: KJOT (JOLIET , IL, US) observed 0015 UTC 25 May 2022
Temperature: 17.5°C (64°F)
Dewpoint: 4.7°C (40°F) [RH = 43%]
Pressure (altimeter): 30.10 inches Hg (1019.4 mb)
Winds: from the NE (50 degrees) at 18 MPH (16 knots; 8.2 m/s)
Visibility: 10 or more miles (16+ km)
Ceiling: at least 12,000 feet AGL
Clouds: scattered clouds at 11000 feet AGL
Weather: automated observation with no human augmentation;
there may or may not be significant weather present at this time

METAR text: KJOT 242355Z AUTO 06011G18KT 10SM SCT120 18/04 A3010 RMK AO2 T01770044 10215 20177
Conditions at: KJOT (JOLIET , IL, US) observed 2355 UTC 24 May 2022
Temperature: 17.7°C (64°F)
Dewpoint: 4.4°C (40°F) [RH = 41%]
Pressure (altimeter): 30.10 inches Hg (1019.4 mb)
Winds: from the ENE (60 degrees) at 13 MPH (11 knots; 5.7 m/s)
gusting to 21 MPH (18 knots; 9.3 m/s)
Visibility: 10 or more miles (16+ km)
Ceiling: at least 12,000 feet AGL
Clouds: scattered clouds at 12000 feet AGL
Weather: automated observation with no human augmentation;
there may or may not be significant weather present at this time